createdAt,value
2018-11-21T00:00:47.419Z,15.88
2018-11-21T00:02:04.205Z,15.50
2018-11-21T00:03:20.657Z,16.23
2018-11-21T00:04:36.601Z,15.25
2018-11-21T00:05:52.732Z,15.85
2018-11-21T00:07:09.310Z,16.50
2018-11-21T00:08:25.395Z,15.30
2018-11-21T00:09:41.762Z,15.43
2018-11-21T00:10:57.561Z,15.43
2018-11-21T00:12:13.644Z,14.65
2018-11-21T00:13:30.234Z,15.60
2018-11-21T00:14:48.262Z,16.67
2018-11-21T00:16:07.631Z,13.85
2018-11-21T00:17:23.868Z,16.57
2018-11-21T00:18:40.689Z,15.45
2018-11-21T00:19:59.892Z,16.45
2018-11-21T00:21:16.381Z,15.03
2018-11-21T00:22:32.911Z,15.30
2018-11-21T00:23:49.814Z,16.85
2018-11-21T00:25:06.171Z,16.23
2018-11-21T00:26:23.012Z,16.48
2018-11-21T00:27:39.063Z,15.75
2018-11-21T00:28:55.426Z,16.05
2018-11-21T00:30:13.532Z,16.85
2018-11-21T00:31:29.929Z,16.00
2018-11-21T00:32:46.362Z,16.77
2018-11-21T00:34:02.046Z,15.75
2018-11-21T00:35:18.334Z,18.10
2018-11-21T00:36:35.073Z,19.05
2018-11-21T00:37:51.183Z,20.25
2018-11-21T00:39:07.929Z,18.30
2018-11-21T00:40:24.562Z,16.93
2018-11-21T00:41:41.779Z,19.92
2018-11-21T00:42:57.610Z,21.35
2018-11-21T00:44:13.326Z,17.32
2018-11-21T00:45:29.398Z,17.30
2018-11-21T00:46:45.564Z,17.12
2018-11-21T00:48:02.108Z,17.70
2018-11-21T00:49:18.366Z,19.55
2018-11-21T00:50:34.066Z,17.12
2018-11-21T00:51:48.438Z,18.45
2018-11-21T00:53:06.723Z,17.15
2018-11-21T00:54:25.803Z,16.23
2018-11-21T00:55:41.427Z,17.82
2018-11-21T00:56:57.889Z,17.27
2018-11-21T00:58:15.302Z,17.15
2018-11-21T00:59:34.515Z,17.37
2018-11-21T01:00:49.283Z,15.48
2018-11-21T01:02:12.617Z,15.95
2018-11-21T01:03:29.276Z,17.02
2018-11-21T01:04:45.239Z,17.55
2018-11-21T01:06:01.873Z,17.80
2018-11-21T01:07:18.415Z,17.35
2018-11-21T01:08:35.083Z,16.82
2018-11-21T01:09:51.198Z,16.40
2018-11-21T01:11:07.704Z,16.80
2018-11-21T01:12:23.722Z,17.27
2018-11-21T01:13:40.000Z,17.27
2018-11-21T01:14:59.297Z,17.50
2018-11-21T01:16:16.023Z,16.35
2018-11-21T01:17:35.284Z,16.75
2018-11-21T01:18:51.306Z,17.48
2018-11-21T01:20:07.824Z,18.30
2018-11-21T01:21:23.928Z,18.92
2018-11-21T01:22:39.518Z,18.67
2018-11-21T01:23:55.868Z,18.15
2018-11-21T01:25:11.553Z,18.65
2018-11-21T01:26:27.200Z,17.90
2018-11-21T01:27:43.354Z,16.93
2018-11-21T01:28:58.963Z,17.17
2018-11-21T01:30:15.222Z,18.85
2018-11-21T01:31:31.762Z,16.05
2018-11-21T01:32:47.862Z,17.80
2018-11-21T01:34:03.724Z,16.52
2018-11-21T01:35:20.122Z,18.15
2018-11-21T01:36:36.298Z,18.05
2018-11-21T01:37:52.362Z,17.30
2018-11-21T01:39:08.925Z,16.75
2018-11-21T01:40:23.406Z,17.00
2018-11-21T01:41:40.281Z,17.50
2018-11-21T01:42:56.294Z,17.60
2018-11-21T01:44:12.778Z,18.85
2018-11-21T01:45:29.679Z,17.95
2018-11-21T01:46:45.663Z,18.15
2018-11-21T01:48:01.741Z,19.75
2018-11-21T01:49:18.105Z,17.30
2018-11-21T01:50:34.488Z,18.20
2018-11-21T01:51:50.702Z,19.48
2018-11-21T01:53:07.497Z,17.90
2018-11-21T01:54:23.767Z,18.98
2018-11-21T01:55:40.528Z,16.77
2018-11-21T01:56:56.372Z,20.15
2018-11-21T01:58:12.147Z,18.62
2018-11-21T01:59:28.331Z,18.50
2018-11-21T02:00:43.995Z,18.07
2018-11-21T02:02:02.936Z,22.20
2018-11-21T02:03:18.900Z,18.50
2018-11-21T02:04:35.062Z,17.62
2018-11-21T02:05:51.024Z,18.95
2018-11-21T02:07:06.222Z,17.17
2018-11-21T02:08:29.485Z,18.12
2018-11-21T02:09:46.161Z,17.25
2018-11-21T02:11:02.711Z,18.32
2018-11-21T02:12:07.106Z,20.85
2018-11-21T02:15:07.170Z,21.00
2018-11-21T02:16:11.568Z,19.57
2018-11-21T02:17:35.024Z,18.98
2018-11-21T02:18:51.375Z,19.62
2018-11-21T02:20:07.969Z,20.43
2018-11-21T02:21:23.907Z,20.60
2018-11-21T02:22:40.264Z,21.70
2018-11-21T02:23:56.644Z,20.08
2018-11-21T02:25:13.071Z,19.90
2018-11-21T02:26:29.623Z,19.20
2018-11-21T02:27:48.042Z,20.55
2018-11-21T02:29:04.306Z,18.35
2018-11-21T02:30:20.780Z,19.32
2018-11-21T02:31:36.774Z,19.65
2018-11-21T02:32:52.881Z,20.37
2018-11-21T02:34:09.119Z,20.08
2018-11-21T02:35:25.639Z,19.92
2018-11-21T02:36:41.878Z,19.57
2018-11-21T02:37:57.594Z,19.75
2018-11-21T02:39:13.591Z,20.57
2018-11-21T02:40:29.626Z,21.70
2018-11-21T02:41:45.914Z,23.27
2018-11-21T02:44:26.591Z,21.37
2018-11-21T02:45:43.676Z,21.55
2018-11-21T02:46:59.779Z,20.90
2018-11-21T02:48:16.151Z,20.23
2018-11-21T02:49:32.260Z,22.87
2018-11-21T02:50:48.655Z,23.05
2018-11-21T02:52:05.382Z,25.60
2018-11-21T02:53:21.890Z,25.12
2018-11-21T02:54:38.109Z,23.32
2018-11-21T02:55:54.683Z,24.82
2018-11-21T02:57:11.088Z,25.40
2018-11-21T02:58:27.493Z,24.70
2018-11-21T02:59:43.188Z,23.65
2018-11-21T03:00:58.881Z,24.87
2018-11-21T03:02:14.552Z,25.65
2018-11-21T03:03:31.023Z,24.15
2018-11-21T03:04:49.093Z,22.27
2018-11-21T03:06:05.239Z,23.35
2018-11-21T03:07:21.402Z,22.85
2018-11-21T03:08:37.044Z,23.45
2018-11-21T03:09:51.778Z,25.43
2018-11-21T03:11:15.121Z,26.05
2018-11-21T03:12:38.933Z,23.90
2018-11-21T03:14:02.254Z,23.45
2018-11-21T03:15:16.826Z,22.05
2018-11-21T03:18:15.753Z,21.62
2018-11-21T03:19:32.331Z,21.00
2018-11-21T03:20:48.760Z,19.57
2018-11-21T03:22:04.799Z,21.00
2018-11-21T03:23:20.586Z,18.98
2018-11-21T03:24:36.536Z,20.05
2018-11-21T03:25:53.232Z,18.55
2018-11-21T03:27:09.758Z,18.17
2018-11-21T03:28:26.120Z,20.27
2018-11-21T03:29:42.683Z,20.45
2018-11-21T03:30:59.238Z,18.60
2018-11-21T03:32:14.447Z,18.80
2018-11-21T03:33:37.801Z,19.23
2018-11-21T03:34:42.526Z,20.50
2018-11-21T03:35:47.863Z,18.92
2018-11-21T03:37:01.417Z,22.32
2018-11-21T03:38:10.168Z,19.90
2018-11-21T03:41:17.137Z,21.02
2018-11-21T03:42:21.445Z,20.32
2018-11-21T03:43:25.513Z,22.37
2018-11-21T03:44:29.978Z,22.22
2018-11-21T03:45:34.792Z,21.42
2018-11-21T03:46:39.983Z,22.22
2018-11-21T03:47:44.404Z,18.82
2018-11-21T03:48:48.729Z,19.15
2018-11-21T03:49:53.111Z,20.95
2018-11-21T03:51:16.509Z,19.80
2018-11-21T03:52:59.277Z,18.35
2018-11-21T03:54:15.691Z,20.20
2018-11-21T03:55:33.121Z,21.73
2018-11-21T03:56:48.751Z,24.30
2018-11-21T03:58:04.964Z,25.50
2018-11-21T03:59:21.857Z,23.42
2018-11-21T04:00:39.598Z,27.20
2018-11-21T04:01:55.899Z,23.12
2018-11-21T04:03:11.666Z,24.80
2018-11-21T04:04:29.997Z,25.60
2018-11-21T04:05:46.708Z,26.12
2018-11-21T04:07:05.136Z,24.20
2018-11-21T04:08:23.586Z,21.80
2018-11-21T04:09:40.929Z,21.02
2018-11-21T04:10:59.274Z,23.20
2018-11-21T04:12:17.777Z,21.55
2018-11-21T04:13:33.832Z,20.90
2018-11-21T04:14:51.160Z,19.75
2018-11-21T04:16:07.324Z,21.07
2018-11-21T04:17:23.949Z,21.87
2018-11-21T04:18:40.012Z,21.50
2018-11-21T04:19:55.680Z,20.45
2018-11-21T04:21:12.392Z,21.82
2018-11-21T04:22:28.719Z,20.08
2018-11-21T04:23:44.687Z,23.42
2018-11-21T04:25:03.183Z,22.50
2018-11-21T04:26:19.602Z,21.93
2018-11-21T04:27:36.184Z,20.60
2018-11-21T04:28:52.159Z,21.02
2018-11-21T04:30:08.435Z,24.43
2018-11-21T04:31:27.497Z,24.92
2018-11-21T04:32:54.907Z,23.83
2018-11-21T04:34:00.666Z,22.55
2018-11-21T04:35:05.686Z,23.83
2018-11-21T04:36:15.229Z,22.30
2018-11-21T04:37:19.929Z,20.92
2018-11-21T04:38:23.900Z,21.55
2018-11-21T04:39:31.015Z,21.30
2018-11-21T04:40:36.183Z,18.95
2018-11-21T04:41:40.562Z,20.02
2018-11-21T04:43:04.369Z,19.52
2018-11-21T04:44:20.875Z,20.17
2018-11-21T04:45:37.720Z,19.90
2018-11-21T04:46:53.998Z,21.27
2018-11-21T04:48:11.449Z,20.88
2018-11-21T04:49:29.701Z,18.95
2018-11-21T04:50:47.991Z,20.35
2018-11-21T04:52:10.203Z,20.15
2018-11-21T04:53:28.460Z,18.23
2018-11-21T04:54:46.533Z,19.92
2018-11-21T04:56:04.217Z,19.60
2018-11-21T04:57:22.124Z,19.65
2018-11-21T04:58:41.521Z,20.82
2018-11-21T05:00:01.891Z,20.30
2018-11-21T05:01:20.899Z,24.45
2018-11-21T05:02:39.139Z,24.70
2018-11-21T05:03:55.890Z,24.12
2018-11-21T05:05:15.122Z,24.72
2018-11-21T05:08:25.445Z,21.27
2018-11-21T05:09:40.355Z,20.48
2018-11-21T05:10:44.949Z,19.07
2018-11-21T05:11:49.581Z,23.83
2018-11-21T05:12:53.699Z,20.57
2018-11-21T05:13:58.497Z,20.08
2018-11-21T05:15:02.883Z,19.48
2018-11-21T05:16:07.676Z,20.20
2018-11-21T05:17:11.651Z,19.87
2018-11-21T05:19:58.258Z,19.42
2018-11-21T05:23:12.535Z,23.73
2018-11-21T05:24:35.978Z,24.30
2018-11-21T05:26:02.791Z,20.97
2018-11-21T05:27:14.142Z,23.05
2018-11-21T05:28:30.531Z,23.40
2018-11-21T05:29:47.023Z,25.27
2018-11-21T05:31:06.938Z,23.95
2018-11-21T05:32:27.080Z,24.18
2018-11-21T05:33:43.909Z,23.20
2018-11-21T05:35:02.301Z,22.98
2018-11-21T05:36:17.114Z,24.12
2018-11-21T05:39:40.108Z,23.25
2018-11-21T05:40:59.752Z,23.75
2018-11-21T05:42:27.052Z,24.95
2018-11-21T05:43:35.609Z,22.55
2018-11-21T05:44:39.957Z,23.85
2018-11-21T05:45:54.200Z,23.40
2018-11-21T05:47:04.433Z,22.40
2018-11-21T05:51:54.491Z,20.45
2018-11-21T05:53:15.585Z,21.48
2018-11-21T05:54:38.213Z,21.10
2018-11-21T05:55:44.749Z,21.33
2018-11-21T05:56:49.130Z,22.52
2018-11-21T05:58:01.334Z,22.10
2018-11-21T05:59:22.392Z,21.70
2018-11-21T06:00:32.722Z,21.10
2018-11-21T06:01:43.843Z,21.30
2018-11-21T06:02:57.567Z,21.07
2018-11-21T06:04:24.794Z,20.12
2018-11-21T06:05:34.947Z,21.07
2018-11-21T06:09:00.729Z,32.67
2018-11-21T06:10:20.171Z,38.92
2018-11-21T06:11:37.457Z,35.75
2018-11-21T06:12:55.590Z,28.90
2018-11-21T06:15:34.836Z,28.25
2018-11-21T06:16:47.690Z,25.02
2018-11-21T06:17:57.184Z,25.82
2018-11-21T06:19:24.532Z,24.37
2018-11-21T06:22:18.725Z,24.63
2018-11-21T06:23:34.577Z,22.77
2018-11-21T06:24:51.150Z,23.25
2018-11-21T06:29:14.135Z,24.45
2018-11-21T06:30:30.289Z,26.02
2018-11-21T06:31:46.624Z,22.32
2018-11-21T06:33:03.329Z,23.18
2018-11-21T06:35:36.902Z,23.80
2018-11-21T06:38:30.913Z,24.05
2018-11-21T06:39:47.228Z,22.52
2018-11-21T06:41:04.182Z,32.70
2018-11-21T06:42:20.123Z,25.05
2018-11-21T06:43:36.636Z,23.40
2018-11-21T06:45:00.372Z,26.57
2018-11-21T06:46:05.774Z,28.23
2018-11-21T06:47:12.845Z,29.67
2018-11-21T06:48:17.738Z,28.02
2018-11-21T06:49:22.063Z,36.00
2018-11-21T06:50:26.709Z,31.65
2018-11-21T06:51:35.180Z,34.78
2018-11-21T06:52:35.925Z,35.65
2018-11-21T06:53:40.789Z,33.05
2018-11-21T06:54:45.411Z,28.73
2018-11-21T06:55:50.574Z,45.58
2018-11-21T06:56:58.810Z,65.83
2018-11-21T06:58:03.936Z,55.30
2018-11-21T06:59:11.214Z,127.38
2018-11-21T07:00:18.930Z,40.43
2018-11-21T07:01:42.323Z,42.17
2018-11-21T07:03:07.289Z,119.95
2018-11-21T07:04:12.994Z,40.45
2018-11-21T07:05:17.473Z,76.00
2018-11-21T07:06:26.786Z,68.75
2018-11-21T07:07:41.763Z,73.67
2018-11-21T07:08:48.223Z,62.43
2018-11-21T07:10:00.119Z,45.03
2018-11-21T07:13:02.568Z,48.85
2018-11-21T07:14:19.052Z,48.10
2018-11-21T07:15:35.975Z,47.67
2018-11-21T07:16:52.577Z,44.25
2018-11-21T07:18:09.650Z,43.65
2018-11-21T07:19:14.655Z,38.42
2018-11-21T07:20:19.073Z,36.55
2018-11-21T07:21:23.063Z,40.30
2018-11-21T07:22:27.372Z,64.40
2018-11-21T07:23:32.833Z,38.30
2018-11-21T07:24:37.833Z,53.38
2018-11-21T07:25:42.685Z,39.18
2018-11-21T07:26:52.909Z,36.08
2018-11-21T07:29:56.125Z,27.77
2018-11-21T07:31:14.346Z,25.90
2018-11-21T07:32:31.332Z,27.90
2018-11-21T07:33:48.973Z,26.65
2018-11-21T07:35:07.583Z,25.68
2018-11-21T07:37:45.650Z,22.87
2018-11-21T07:39:01.320Z,23.45
2018-11-21T07:41:59.707Z,25.72
2018-11-21T07:43:17.475Z,27.62
2018-11-21T07:44:26.940Z,30.82
2018-11-21T07:46:07.625Z,26.25
2018-11-21T07:47:53.667Z,25.02
2018-11-21T07:49:18.059Z,23.57
2018-11-21T07:52:19.690Z,24.40
2018-11-21T07:53:38.524Z,24.40
2018-11-21T07:54:58.073Z,23.38
2018-11-21T07:56:14.833Z,23.07
2018-11-21T07:57:32.268Z,21.82
2018-11-21T07:58:48.839Z,24.30
2018-11-21T08:00:20.903Z,23.67
2018-11-21T08:03:31.898Z,22.58
2018-11-21T08:05:00.334Z,24.18
2018-11-21T08:06:35.168Z,24.57
2018-11-21T08:07:58.300Z,25.48
2018-11-21T08:09:46.718Z,23.50
2018-11-21T08:11:22.362Z,21.77
2018-11-21T08:14:48.885Z,23.52
2018-11-21T08:16:24.231Z,23.83
2018-11-21T08:19:51.758Z,24.90
2018-11-21T08:21:32.131Z,26.05
2018-11-21T08:22:51.357Z,23.12
2018-11-21T08:24:23.184Z,23.38
2018-11-21T08:27:50.910Z,24.77
2018-11-21T08:42:24.833Z,24.98
2018-11-21T08:45:29.947Z,28.62
2018-11-21T08:47:03.743Z,28.35
2018-11-21T08:48:20.790Z,22.70
2018-11-21T08:49:41.765Z,24.15
2018-11-21T08:50:58.083Z,27.05
2018-11-21T08:52:14.966Z,25.95
2018-11-21T08:53:19.092Z,25.05
2018-11-21T08:54:23.335Z,27.95
2018-11-21T08:55:49.887Z,25.77
2018-11-21T08:57:06.140Z,25.17
2018-11-21T08:58:22.375Z,25.68
2018-11-21T08:59:26.864Z,26.75
2018-11-21T09:00:31.716Z,27.27
2018-11-21T09:01:38.235Z,27.05
2018-11-21T09:03:01.712Z,29.87
2018-11-21T09:04:17.960Z,30.62
2018-11-21T09:05:33.885Z,27.20
2018-11-21T09:06:40.140Z,28.57
2018-11-21T09:08:04.533Z,26.25
2018-11-21T09:09:28.437Z,24.55
2018-11-21T09:10:44.368Z,26.52
2018-11-21T09:12:01.077Z,23.38
2018-11-21T09:13:05.178Z,25.43
2018-11-21T09:14:30.875Z,24.18
2018-11-21T09:15:46.726Z,25.45
2018-11-21T09:17:03.358Z,28.15
2018-11-21T09:18:19.751Z,31.10
2018-11-21T09:21:10.016Z,28.15
2018-11-21T09:22:26.172Z,30.35
2018-11-21T09:23:43.590Z,29.70
2018-11-21T09:25:01.183Z,28.38
2018-11-21T09:26:14.107Z,26.30
2018-11-21T09:27:58.266Z,30.15
2018-11-21T09:29:15.292Z,26.62
2018-11-21T09:30:21.501Z,28.35
2018-11-21T09:31:45.985Z,31.02
2018-11-21T09:33:52.513Z,35.92
2018-11-21T09:35:12.237Z,29.12
2018-11-21T09:37:53.286Z,31.07
2018-11-21T09:39:10.328Z,34.60
2018-11-21T09:40:29.153Z,37.40
2018-11-21T09:45:06.359Z,29.85
2018-11-21T09:46:25.107Z,29.90
2018-11-21T09:47:43.637Z,28.65
2018-11-21T09:49:06.083Z,26.10
2018-11-21T09:50:29.962Z,27.82
2018-11-21T09:51:48.170Z,27.67
2018-11-21T09:53:04.717Z,25.95
2018-11-21T09:54:21.751Z,25.85
2018-11-21T09:55:40.372Z,25.25
2018-11-21T09:56:54.295Z,23.95
2018-11-21T10:00:13.818Z,24.18
2018-11-21T10:01:30.067Z,24.23
2018-11-21T10:02:47.676Z,24.82
2018-11-21T10:04:08.998Z,24.23
2018-11-21T10:05:25.197Z,23.92
2018-11-21T10:06:44.533Z,23.42
2018-11-21T10:11:02.914Z,23.50
2018-11-21T10:12:19.246Z,26.20
2018-11-21T10:13:35.477Z,26.27
2018-11-21T10:14:51.787Z,25.57
2018-11-21T10:16:34.227Z,25.55
2018-11-21T10:17:38.722Z,25.55
2018-11-21T10:19:02.405Z,25.05
2018-11-21T10:20:07.818Z,23.50
2018-11-21T10:21:25.397Z,24.37
2018-11-21T10:22:49.159Z,25.57
2018-11-21T10:24:03.114Z,23.25
2018-11-21T10:25:19.595Z,25.30
2018-11-21T10:26:38.021Z,22.77
2018-11-21T10:27:56.250Z,22.65
2018-11-21T10:29:12.456Z,23.57
2018-11-21T10:30:28.886Z,23.20
2018-11-21T10:31:45.087Z,22.65
2018-11-21T10:33:01.263Z,22.13
2018-11-21T10:34:20.136Z,21.15
2018-11-21T10:35:36.629Z,22.60
2018-11-21T10:36:53.599Z,22.67
2018-11-21T10:37:57.984Z,22.27
2018-11-21T10:39:02.684Z,23.10
2018-11-21T10:40:26.857Z,23.47
2018-11-21T10:41:52.357Z,20.62
2018-11-21T10:42:59.087Z,22.73
2018-11-21T10:44:04.173Z,22.77
2018-11-21T10:45:09.544Z,21.45
2018-11-21T10:46:15.249Z,21.23
2018-11-21T10:47:19.664Z,23.00
2018-11-21T10:48:29.787Z,21.25
2018-11-21T10:49:35.333Z,23.40
2018-11-21T10:50:42.558Z,22.85
2018-11-21T10:51:48.443Z,23.15
2018-11-21T10:52:56.862Z,23.20
2018-11-21T10:54:04.087Z,22.02
2018-11-21T10:55:09.013Z,24.12
2018-11-21T10:56:17.899Z,24.10
2018-11-21T10:57:31.959Z,20.15
2018-11-21T10:59:14.508Z,20.88
2018-11-21T11:00:54.880Z,22.32
2018-11-21T11:04:28.529Z,17.70
2018-11-21T11:11:10.158Z,20.30
2018-11-21T11:12:48.056Z,20.68
2018-11-21T11:19:31.061Z,21.25
2018-11-21T11:21:07.624Z,21.70
2018-11-21T11:22:42.677Z,21.97
2018-11-21T11:24:18.267Z,20.25
2018-11-21T11:27:43.754Z,19.92
2018-11-21T11:29:22.155Z,20.92
2018-11-21T11:32:48.383Z,24.45
2018-11-21T11:34:23.184Z,19.87
2018-11-21T11:36:04.287Z,21.82
2018-11-21T11:37:42.267Z,23.52
2018-11-21T11:39:23.480Z,24.23
2018-11-21T11:41:01.719Z,21.52
2018-11-21T11:42:37.301Z,21.50
2018-11-21T11:44:12.016Z,21.60
2018-11-21T11:45:47.215Z,25.40
2018-11-21T11:47:22.184Z,23.98
2018-11-21T11:49:03.627Z,23.00
2018-11-21T11:50:38.488Z,24.12
2018-11-21T11:52:16.350Z,22.93
2018-11-21T11:59:07.419Z,22.35
2018-11-21T12:02:26.363Z,18.62
2018-11-21T12:04:01.879Z,22.70
2018-11-21T12:05:37.968Z,22.98
2018-11-21T12:07:08.084Z,21.95
2018-11-21T12:08:44.274Z,22.82
2018-11-21T12:11:22.224Z,20.12
2018-11-21T12:13:02.665Z,22.10
2018-11-21T12:15:47.551Z,21.97
2018-11-21T12:17:26.135Z,20.30
2018-11-21T12:18:43.220Z,21.50
2018-11-21T12:24:01.188Z,22.45
2018-11-21T12:28:47.997Z,25.65
2018-11-21T12:32:04.799Z,24.12
2018-11-21T12:33:40.188Z,22.25
2018-11-21T12:35:13.871Z,22.95
2018-11-21T12:36:35.650Z,23.95
2018-11-21T12:37:57.390Z,28.38
2018-11-21T12:39:23.557Z,24.43
2018-11-21T12:40:48.229Z,24.23
2018-11-21T12:42:15.965Z,27.87
2018-11-21T12:43:31.622Z,29.98
2018-11-21T12:45:10.229Z,25.00
2018-11-21T12:46:32.309Z,21.75
2018-11-21T12:50:31.112Z,21.17
2018-11-21T12:52:06.081Z,20.72
2018-11-21T12:53:32.791Z,21.70
2018-11-21T12:56:49.096Z,20.90
2018-11-21T12:58:25.621Z,18.02
2018-11-21T13:00:15.201Z,20.65
2018-11-21T13:03:55.317Z,25.17
2018-11-21T13:08:45.857Z,20.70
2018-11-21T13:10:16.639Z,21.97
2018-11-21T13:11:55.148Z,20.17
2018-11-21T13:13:31.992Z,19.32
2018-11-21T13:15:07.678Z,22.70
2018-11-21T13:16:50.175Z,20.50
2018-11-21T13:20:21.179Z,23.50
2018-11-21T13:21:59.830Z,22.98
2018-11-21T13:25:39.152Z,22.05
2018-11-21T13:27:15.662Z,20.40
2018-11-21T13:28:30.194Z,19.87
2018-11-21T13:30:13.600Z,21.07
2018-11-21T13:32:03.521Z,19.42
2018-11-21T13:33:29.765Z,21.07
2018-11-21T13:35:19.980Z,20.97
2018-11-21T13:36:54.915Z,22.73
2018-11-21T13:38:23.260Z,23.10
2018-11-21T13:39:42.497Z,20.32
2018-11-21T13:41:08.114Z,20.85
2018-11-21T13:42:30.350Z,20.23
2018-11-21T13:44:16.586Z,21.50
2018-11-21T13:45:52.008Z,18.95
2018-11-21T13:47:27.457Z,21.10
2018-11-21T13:49:02.726Z,21.95
2018-11-21T13:52:24.732Z,21.37
2018-11-21T13:54:00.173Z,22.20
2018-11-21T13:55:18.300Z,23.62
2018-11-21T13:56:34.645Z,23.20
2018-11-21T13:57:51.715Z,25.08
2018-11-21T13:59:08.739Z,22.55
2018-11-21T14:00:25.036Z,22.35
2018-11-21T14:01:41.503Z,22.00
2018-11-21T14:02:57.404Z,22.85
2018-11-21T14:06:12.849Z,21.55
2018-11-21T14:07:34.120Z,23.75
2018-11-21T14:08:59.463Z,22.60
2018-11-21T14:13:34.986Z,24.82
2018-11-21T14:14:54.354Z,23.02
2018-11-21T14:17:43.933Z,22.42
2018-11-21T14:20:23.799Z,24.40
2018-11-21T14:21:39.611Z,23.70
2018-11-21T14:22:55.933Z,23.75
2018-11-21T14:24:14.715Z,25.10
2018-11-21T14:25:33.739Z,24.90
2018-11-21T14:26:49.948Z,27.62
2018-11-21T14:28:07.271Z,30.05
2018-11-21T14:29:24.015Z,27.70
2018-11-21T14:30:42.620Z,30.05
2018-11-21T14:31:58.877Z,26.85
2018-11-21T14:33:20.672Z,29.42
2018-11-21T14:37:36.249Z,25.92
2018-11-21T14:38:52.436Z,26.00
2018-11-21T14:40:40.245Z,23.32
2018-11-21T14:47:05.205Z,23.80
2018-11-21T14:49:40.863Z,27.73
2018-11-21T14:52:20.370Z,28.02
2018-11-21T14:53:37.072Z,27.35
2018-11-21T14:54:56.013Z,26.40
2018-11-21T14:57:56.110Z,27.35
2018-11-21T15:00:42.709Z,25.57
2018-11-21T15:02:03.150Z,26.68
2018-11-21T15:03:22.103Z,26.95
2018-11-21T15:04:39.006Z,26.68
2018-11-21T15:06:13.550Z,25.02
